createdAt,value
2018-04-14T00:00:39.616Z,99.99
2018-04-14T00:01:39.674Z,99.99
2018-04-14T00:03:32.684Z,99.99
2018-04-14T00:04:32.726Z,99.99
2018-04-14T00:06:25.732Z,99.99
2018-04-14T00:07:25.771Z,99.99
2018-04-14T00:09:18.762Z,99.99
2018-04-14T00:10:18.821Z,99.99
2018-04-14T00:12:11.826Z,99.99
2018-04-14T00:13:11.865Z,99.99
2018-04-14T00:15:04.854Z,99.99
2018-04-14T00:16:04.913Z,99.99
2018-04-14T00:17:57.962Z,99.99
2018-04-14T00:18:57.958Z,99.99
2018-04-14T00:20:50.949Z,99.99
2018-04-14T00:21:51.007Z,99.99
2018-04-14T00:23:44.021Z,99.99
2018-04-14T00:24:44.061Z,99.99
2018-04-14T00:26:37.075Z,99.99
2018-04-14T00:27:37.109Z,99.99
2018-04-14T00:29:30.113Z,99.99
2018-04-14T00:30:30.175Z,99.99
2018-04-14T00:32:23.181Z,99.99
2018-04-14T00:33:23.220Z,99.99
2018-04-14T00:35:16.205Z,99.99
2018-04-14T00:36:16.266Z,99.99
2018-04-14T00:38:09.279Z,99.99
2018-04-14T00:39:09.318Z,99.99
2018-04-14T00:41:02.308Z,99.99
2018-04-14T00:42:02.369Z,99.99
2018-04-14T00:43:55.383Z,99.99
2018-04-14T00:44:55.420Z,99.99
2018-04-14T00:46:48.409Z,99.99
2018-04-14T00:47:48.467Z,99.99
2018-04-14T00:49:41.472Z,99.99
2018-04-14T00:50:41.512Z,99.99
2018-04-14T00:52:34.519Z,99.99
2018-04-14T00:53:34.560Z,99.99
2018-04-14T00:55:27.548Z,99.99
2018-04-14T00:56:27.606Z,99.99
2018-04-14T00:58:20.612Z,99.99
2018-04-14T00:59:20.653Z,99.99
2018-04-14T01:01:13.642Z,99.99
2018-04-14T01:02:13.992Z,99.99
2018-04-14T01:04:06.707Z,99.99
2018-04-14T01:05:06.747Z,99.99
2018-04-14T01:06:59.736Z,99.99
2018-04-14T01:07:59.795Z,99.99
2018-04-14T01:09:52.804Z,99.99
2018-04-14T01:10:52.847Z,99.99
2018-04-14T01:12:45.851Z,99.99
2018-04-14T01:13:45.892Z,99.99
2018-04-14T01:15:38.883Z,99.99
2018-04-14T01:16:38.938Z,99.99
2018-04-14T01:18:31.944Z,99.99
2018-04-14T01:19:31.985Z,99.99
2018-04-14T01:21:24.993Z,99.99
2018-04-14T01:22:25.042Z,99.99
2018-04-14T01:24:18.047Z,99.99
2018-04-14T01:25:18.086Z,99.99
2018-04-14T01:27:11.070Z,99.99
2018-04-14T01:28:11.135Z,99.99
2018-04-14T01:30:04.142Z,99.99
2018-04-14T01:31:04.180Z,99.99
2018-04-14T01:32:57.171Z,99.99
2018-04-14T01:33:57.226Z,99.99
2018-04-14T01:35:50.235Z,99.99
2018-04-14T01:36:50.274Z,99.99
2018-04-14T01:38:43.281Z,99.99
2018-04-14T01:39:43.321Z,99.99
2018-04-14T01:41:36.310Z,99.99
2018-04-14T01:42:36.369Z,99.99
2018-04-14T01:44:29.376Z,99.99
2018-04-14T01:45:29.416Z,99.99
2018-04-14T01:47:22.441Z,99.99
2018-04-14T01:48:22.462Z,99.99
2018-04-14T01:50:15.466Z,99.99
2018-04-14T01:51:15.551Z,99.99
2018-04-14T01:53:08.496Z,99.99
2018-04-14T01:54:08.553Z,99.99
2018-04-14T01:56:01.557Z,99.99
2018-04-14T01:57:01.599Z,99.99
2018-04-14T01:58:54.609Z,99.99
2018-04-14T01:59:54.649Z,99.99
2018-04-14T02:01:47.641Z,99.99
2018-04-14T02:02:47.700Z,99.99
2018-04-14T02:04:40.707Z,99.99
2018-04-14T02:05:40.748Z,99.99
2018-04-14T02:07:33.737Z,99.99
2018-04-14T02:08:33.798Z,99.99
2018-04-14T02:10:26.805Z,99.99
2018-04-14T02:11:26.847Z,99.99
2018-04-14T02:13:19.830Z,99.99
2018-04-14T02:14:19.892Z,99.99
2018-04-14T02:16:12.897Z,99.99
2018-04-14T02:17:12.944Z,99.99
2018-04-14T02:19:05.921Z,99.99
2018-04-14T02:20:05.982Z,99.99
2018-04-14T02:21:58.994Z,99.99
2018-04-14T02:22:59.027Z,99.99
2018-04-14T02:24:52.030Z,99.99
2018-04-14T02:25:52.071Z,99.99
2018-04-14T02:27:45.055Z,99.99
2018-04-14T02:28:45.117Z,99.99
2018-04-14T02:30:38.123Z,99.99
2018-04-14T02:31:38.163Z,99.99
2018-04-14T02:33:31.147Z,99.99
2018-04-14T02:34:31.209Z,99.99
2018-04-14T02:36:24.210Z,99.99
2018-04-14T02:37:24.253Z,99.99
2018-04-14T02:39:17.240Z,99.99
2018-04-14T02:40:17.303Z,99.99
2018-04-14T02:42:10.307Z,99.99
2018-04-14T02:43:10.350Z,99.99
2018-04-14T02:45:03.366Z,99.99
2018-04-14T02:46:03.390Z,99.99
2018-04-14T02:47:56.374Z,99.99
2018-04-14T02:48:56.435Z,99.99
2018-04-14T02:50:49.440Z,99.99
2018-04-14T02:51:49.478Z,99.99
2018-04-14T02:53:42.468Z,99.99
2018-04-14T02:54:42.524Z,99.99
2018-04-14T02:56:36.075Z,99.99
2018-04-14T02:57:35.571Z,99.99
2018-04-14T02:59:28.550Z,99.99
2018-04-14T03:00:28.613Z,99.99
2018-04-14T03:02:21.619Z,99.99
2018-04-14T03:03:21.660Z,99.99
2018-04-14T03:05:14.642Z,99.99
2018-04-14T03:06:14.704Z,99.99
2018-04-14T03:08:07.712Z,99.99
2018-04-14T03:09:07.761Z,99.99
2018-04-14T03:11:00.750Z,99.99
2018-04-14T03:12:00.791Z,99.99
2018-04-14T03:13:53.772Z,99.99
2018-04-14T03:14:53.834Z,99.99
2018-04-14T03:16:46.842Z,99.99
2018-04-14T03:17:46.880Z,99.99
2018-04-14T03:19:39.868Z,99.99
2018-04-14T03:20:39.925Z,99.99
2018-04-14T03:22:32.927Z,99.99
2018-04-14T03:23:32.969Z,99.99
2018-04-14T03:25:25.957Z,99.99
2018-04-14T03:26:26.014Z,99.99
2018-04-14T03:28:19.025Z,99.99
2018-04-14T03:29:19.070Z,99.99
2018-04-14T03:31:12.086Z,99.99
2018-04-14T03:32:12.109Z,99.99
2018-04-14T03:34:05.098Z,99.99
2018-04-14T03:35:05.156Z,99.99
2018-04-14T03:36:58.159Z,99.99
2018-04-14T03:37:58.201Z,99.99
2018-04-14T03:39:51.224Z,99.99
2018-04-14T03:40:51.258Z,99.99
2018-04-14T03:42:44.254Z,99.99
2018-04-14T03:43:44.294Z,99.99
2018-04-14T03:45:37.276Z,99.99
2018-04-14T03:46:37.339Z,99.99
2018-04-14T03:48:30.342Z,99.99
2018-04-14T03:49:30.384Z,99.99
2018-04-14T03:51:23.363Z,99.99
2018-04-14T03:52:23.423Z,99.99
2018-04-14T03:54:16.426Z,99.99
2018-04-14T03:55:16.468Z,99.99
2018-04-14T03:57:09.469Z,99.99
2018-04-14T03:58:09.511Z,99.99
2018-04-14T04:00:02.493Z,99.99
2018-04-14T04:01:02.557Z,99.99
2018-04-14T04:02:55.557Z,99.99
2018-04-14T04:03:55.601Z,99.99
2018-04-14T04:05:48.586Z,99.99
2018-04-14T04:06:48.644Z,99.99
2018-04-14T04:08:41.703Z,99.99
2018-04-14T04:09:41.688Z,99.99
2018-04-14T04:11:34.677Z,99.99
2018-04-14T04:12:34.733Z,99.99
2018-04-14T04:14:27.737Z,99.99
2018-04-14T04:15:27.778Z,99.99
2018-04-14T04:17:20.780Z,99.99
2018-04-14T04:18:20.821Z,99.99
2018-04-14T04:20:13.803Z,99.99
2018-04-14T04:21:13.869Z,99.99
2018-04-14T04:23:06.867Z,99.99
2018-04-14T04:24:06.908Z,99.99
2018-04-14T04:25:59.952Z,99.99
2018-04-14T04:27:00.091Z,99.99
2018-04-14T04:28:52.934Z,99.99
2018-04-14T04:29:52.997Z,99.99
2018-04-14T04:31:46.004Z,99.99
2018-04-14T04:32:46.045Z,99.99
2018-04-14T04:34:39.031Z,99.99
2018-04-14T04:35:39.086Z,99.99
2018-04-14T04:37:32.090Z,99.99
2018-04-14T04:38:32.131Z,99.99
2018-04-14T04:40:25.153Z,99.99
2018-04-14T04:41:25.172Z,99.99
2018-04-14T04:43:18.174Z,99.99
2018-04-14T04:44:18.216Z,99.99
2018-04-14T04:46:11.217Z,99.99
2018-04-14T04:47:11.258Z,99.99
2018-04-14T04:49:04.247Z,99.99
2018-04-14T04:50:04.304Z,99.99
2018-04-14T04:51:57.352Z,99.99
2018-04-14T04:52:57.352Z,99.99
2018-04-14T04:54:50.415Z,99.99
2018-04-14T04:55:50.405Z,99.99
2018-04-14T04:57:43.406Z,99.99
2018-04-14T04:58:43.449Z,99.99
2018-04-14T05:00:36.431Z,99.99
2018-04-14T05:01:36.496Z,99.99
2018-04-14T05:03:29.497Z,99.99
2018-04-14T05:04:29.539Z,99.99
2018-04-14T05:06:22.543Z,99.99
2018-04-14T05:07:22.582Z,99.99
2018-04-14T05:09:15.563Z,99.99
2018-04-14T05:10:15.625Z,99.99
2018-04-14T05:12:08.675Z,99.99
2018-04-14T05:13:08.668Z,99.99
2018-04-14T05:15:01.653Z,99.99
2018-04-14T05:16:01.715Z,99.99
2018-04-14T05:17:54.760Z,99.99
2018-04-14T05:18:54.756Z,99.99
2018-04-14T05:20:47.743Z,99.99
2018-04-14T05:21:47.798Z,99.99
2018-04-14T05:23:40.800Z,99.99
2018-04-14T05:24:40.842Z,99.99
2018-04-14T05:26:33.887Z,99.99
2018-04-14T05:27:33.885Z,99.99
2018-04-14T05:29:26.875Z,99.99
2018-04-14T05:30:26.937Z,99.99
2018-04-14T05:32:19.940Z,99.99
2018-04-14T05:33:19.982Z,99.99
2018-04-14T05:35:12.962Z,99.99
2018-04-14T05:36:13.023Z,99.99
2018-04-14T05:38:06.066Z,99.99
2018-04-14T05:39:06.070Z,99.99
2018-04-14T05:40:59.061Z,99.99
2018-04-14T05:41:59.122Z,99.99
2018-04-14T05:43:52.129Z,99.99
2018-04-14T05:44:52.171Z,99.99
2018-04-14T05:46:45.215Z,99.99
2018-04-14T05:47:45.218Z,99.99
2018-04-14T05:49:38.243Z,99.99
2018-04-14T05:50:38.259Z,99.99
2018-04-14T05:52:31.270Z,99.99
2018-04-14T05:53:31.307Z,99.99
2018-04-14T05:55:24.329Z,99.99
2018-04-14T05:56:24.350Z,99.99
2018-04-14T05:58:17.900Z,99.99
2018-04-14T05:59:17.903Z,99.99
2018-04-14T06:01:10.926Z,99.99
2018-04-14T06:02:10.949Z,99.99
2018-04-14T06:04:03.958Z,99.99
2018-04-14T06:05:04.004Z,99.99
2018-04-14T06:06:57.006Z,99.99
2018-04-14T06:07:57.127Z,99.99
2018-04-14T06:09:50.040Z,99.99
2018-04-14T06:10:50.097Z,99.99
2018-04-14T06:12:43.106Z,99.99
2018-04-14T06:13:43.150Z,99.99
2018-04-14T06:15:36.164Z,99.99
2018-04-14T06:16:36.198Z,99.99
2018-04-14T06:18:29.187Z,99.99
2018-04-14T06:19:29.245Z,99.99
2018-04-14T06:21:22.274Z,99.99
2018-04-14T06:22:22.345Z,99.99
2018-04-14T06:24:15.283Z,99.99
2018-04-14T06:25:15.347Z,99.99
2018-04-14T06:27:08.350Z,99.99
2018-04-14T06:28:08.394Z,99.80
2018-04-14T06:30:01.377Z,99.18
2018-04-14T06:31:01.439Z,99.28
2018-04-14T06:32:54.484Z,99.18
2018-04-14T06:33:54.519Z,98.23
2018-04-14T06:35:47.484Z,95.41
2018-04-14T06:36:47.536Z,94.27
2018-04-14T06:38:40.539Z,95.03
2018-04-14T06:39:40.582Z,94.74
2018-04-14T06:41:33.594Z,93.26
2018-04-14T06:42:33.637Z,92.79
2018-04-14T06:44:27.140Z,92.97
2018-04-14T06:45:27.192Z,92.93
2018-04-14T06:47:20.199Z,93.21
2018-04-14T06:48:20.240Z,92.93
2018-04-14T06:50:13.234Z,93.65
2018-04-14T06:51:13.289Z,93.74
2018-04-14T06:53:06.300Z,94.51
2018-04-14T06:54:06.341Z,94.31
2018-04-14T06:55:59.325Z,94.03
2018-04-14T06:56:59.395Z,93.74
2018-04-14T06:58:53.438Z,93.60
2018-04-14T06:59:53.441Z,94.07
2018-04-14T07:01:46.448Z,93.07
2018-04-14T07:02:46.491Z,92.02
2018-04-14T07:04:40.014Z,90.39
2018-04-14T07:05:40.046Z,89.92
2018-04-14T07:07:33.069Z,90.06
2018-04-14T07:08:33.102Z,88.95
2018-04-14T07:10:26.095Z,85.69
2018-04-14T07:11:26.156Z,83.67
2018-04-14T07:13:19.171Z,80.20
2018-04-14T07:14:19.214Z,77.94
2018-04-14T07:16:12.711Z,76.06
2018-04-14T07:17:12.774Z,73.98
2018-04-14T07:19:05.785Z,72.48
2018-04-14T07:20:05.828Z,71.39
2018-04-14T07:21:58.823Z,70.84
2018-04-14T07:22:58.890Z,70.75
2018-04-14T07:24:51.902Z,68.57
2018-04-14T07:25:51.954Z,67.90
2018-04-14T07:27:44.964Z,65.63
2018-04-14T07:28:45.006Z,65.01
2018-04-14T07:30:39.026Z,68.98
2018-04-14T07:31:38.149Z,68.63
2018-04-14T07:33:31.163Z,70.55
2018-04-14T07:34:31.209Z,72.22
2018-04-14T07:36:24.207Z,71.14
2018-04-14T07:37:24.271Z,67.90
2018-04-14T07:39:17.289Z,68.63
2018-04-14T07:40:17.335Z,67.22
2018-04-14T07:42:10.358Z,69.27
2018-04-14T07:43:10.722Z,71.48
2018-04-14T07:45:03.418Z,73.30
2018-04-14T07:46:03.462Z,73.58
2018-04-14T07:47:56.477Z,73.58
2018-04-14T07:48:56.523Z,74.22
2018-04-14T07:50:49.519Z,75.62
2018-04-14T07:51:49.582Z,76.67
2018-04-14T07:53:42.601Z,75.18
2018-04-14T07:54:42.648Z,76.32
2018-04-14T07:56:35.643Z,76.65
2018-04-14T07:57:35.708Z,76.23
2018-04-14T07:59:28.724Z,74.89
2018-04-14T08:00:28.768Z,73.49
2018-04-14T08:02:21.763Z,70.14
2018-04-14T08:03:21.830Z,68.09
2018-04-14T08:05:14.847Z,65.88
2018-04-14T08:06:14.907Z,65.97
2018-04-14T08:08:07.909Z,67.80
2018-04-14T08:09:07.955Z,69.78
2018-04-14T08:11:00.989Z,73.26
2018-04-14T08:12:01.018Z,74.08
2018-04-14T08:13:54.036Z,72.08
2018-04-14T08:14:54.082Z,71.47
2018-04-14T08:16:47.084Z,71.57
2018-04-14T08:17:47.145Z,72.63
2018-04-14T08:19:40.167Z,72.53
2018-04-14T08:20:40.214Z,72.53
2018-04-14T08:22:33.214Z,73.58
2018-04-14T08:23:33.279Z,73.39
2018-04-14T08:25:26.294Z,76.39
2018-04-14T08:26:26.338Z,76.29
2018-04-14T08:28:19.338Z,76.77
2018-04-14T08:29:19.410Z,76.54
2018-04-14T08:31:12.462Z,78.17
2018-04-14T08:32:12.476Z,77.82
2018-04-14T08:34:05.492Z,72.92
2018-04-14T08:35:05.538Z,72.41
2018-04-14T08:36:58.537Z,73.10
2018-04-14T08:37:58.605Z,74.41
2018-04-14T08:39:51.623Z,75.43
2018-04-14T08:40:51.671Z,76.19
2018-04-14T08:42:44.695Z,78.07
2018-04-14T08:43:44.731Z,77.97
2018-04-14T08:45:37.743Z,78.84
2018-04-14T08:46:37.789Z,78.93
2018-04-14T08:48:30.839Z,79.99
2018-04-14T08:49:30.847Z,79.03
2018-04-14T08:51:23.844Z,78.40
2018-04-14T08:52:23.905Z,78.78
2018-04-14T08:54:16.917Z,78.30
2018-04-14T08:55:16.971Z,77.73
2018-04-14T08:57:09.993Z,77.15
2018-04-14T08:58:10.022Z,78.40
2018-04-14T09:00:03.033Z,74.83
2018-04-14T09:01:03.081Z,76.62
2018-04-14T09:02:56.076Z,74.35
2018-04-14T09:03:56.140Z,74.35
2018-04-14T09:05:49.196Z,73.83
2018-04-14T09:06:49.200Z,75.85
2018-04-14T09:08:42.215Z,76.71
2018-04-14T09:09:42.260Z,77.09
2018-04-14T09:11:35.253Z,76.48
2018-04-14T09:12:35.320Z,77.25
2018-04-14T09:14:28.334Z,77.40
2018-04-14T09:15:28.378Z,77.69
2018-04-14T09:17:21.373Z,78.40
2018-04-14T09:18:21.441Z,77.92
2018-04-14T09:20:14.452Z,78.63
2018-04-14T09:21:14.496Z,77.53
2018-04-14T09:23:07.489Z,77.25
2018-04-14T09:24:07.557Z,76.48
2018-04-14T09:26:00.568Z,77.95
2018-04-14T09:27:00.613Z,76.14
2018-04-14T09:28:53.633Z,77.59
2018-04-14T09:29:53.691Z,77.69
2018-04-14T09:31:46.661Z,78.07
2018-04-14T09:32:46.722Z,78.88
2018-04-14T09:34:39.731Z,78.30
2018-04-14T09:35:39.778Z,76.57
2018-04-14T09:37:32.773Z,76.15
2018-04-14T09:38:32.833Z,76.44
2018-04-14T09:40:25.846Z,76.64
2018-04-14T09:41:25.891Z,77.31
2018-04-14T09:43:18.884Z,76.48
2018-04-14T09:44:18.948Z,76.67
2018-04-14T09:46:11.965Z,78.11
2018-04-14T09:47:12.034Z,76.29
2018-04-14T09:49:05.026Z,76.48
2018-04-14T09:50:05.070Z,77.53
2018-04-14T09:51:58.076Z,76.44
2018-04-14T09:52:58.126Z,76.54
2018-04-14T09:54:51.137Z,77.73
2018-04-14T09:55:51.183Z,76.48
2018-04-14T09:57:44.683Z,75.70
2018-04-14T09:58:44.747Z,75.02
2018-04-14T10:00:37.781Z,74.54
2018-04-14T10:01:37.805Z,74.83
2018-04-14T10:03:30.804Z,73.58
2018-04-14T10:04:30.863Z,74.26
2018-04-14T10:06:23.878Z,73.49
2018-04-14T10:07:23.922Z,73.10
2018-04-14T10:09:16.936Z,72.95
2018-04-14T10:10:16.981Z,73.43
2018-04-14T10:12:09.980Z,70.99
2018-04-14T10:13:10.039Z,73.49
2018-04-14T10:15:03.562Z,72.08
2018-04-14T10:16:03.607Z,71.70
2018-04-14T10:17:56.600Z,72.08
2018-04-14T10:18:56.664Z,71.98
2018-04-14T10:20:49.678Z,71.76
2018-04-14T10:21:49.726Z,71.70
2018-04-14T10:23:42.754Z,73.39
2018-04-14T10:24:42.803Z,73.77
2018-04-14T10:26:36.308Z,73.33
2018-04-14T10:27:36.354Z,73.33
2018-04-14T10:29:29.366Z,72.66
2018-04-14T10:30:29.413Z,73.14
2018-04-14T10:32:22.427Z,74.06
2018-04-14T10:33:22.483Z,73.10
2018-04-14T10:35:15.487Z,73.20
2018-04-14T10:36:15.534Z,72.53
2018-04-14T10:38:08.552Z,72.72
2018-04-14T10:39:08.591Z,73.20
2018-04-14T10:41:01.605Z,73.68
2018-04-14T10:42:01.651Z,72.56
2018-04-14T10:43:55.167Z,71.98
2018-04-14T10:44:55.216Z,71.89
2018-04-14T10:46:48.227Z,72.47
2018-04-14T10:47:48.412Z,74.06
2018-04-14T10:49:41.287Z,72.85
2018-04-14T10:50:41.335Z,75.15
2018-04-14T10:52:34.334Z,74.48
2018-04-14T10:53:34.401Z,74.10
2018-04-14T10:55:27.419Z,72.56
2018-04-14T10:56:27.466Z,71.51
2018-04-14T10:58:20.462Z,72.08
2018-04-14T10:59:20.555Z,73.33
2018-04-14T11:01:13.537Z,70.87
2018-04-14T11:02:13.581Z,72.08
2018-04-14T11:04:06.576Z,71.61
2018-04-14T11:05:06.640Z,70.84
2018-04-14T11:06:59.662Z,70.93
2018-04-14T11:07:59.700Z,72.37
2018-04-14T11:09:52.710Z,71.70
2018-04-14T11:10:52.755Z,72.08
2018-04-14T11:12:45.782Z,73.91
2018-04-14T11:13:45.849Z,74.06
2018-04-14T11:15:38.859Z,72.95
2018-04-14T11:16:38.904Z,72.08
2018-04-14T11:18:31.901Z,74.29
2018-04-14T11:19:31.963Z,72.33
2018-04-14T11:21:25.012Z,73.33
2018-04-14T11:22:25.020Z,73.10
2018-04-14T11:24:18.014Z,72.66
2018-04-14T11:25:18.080Z,72.14
2018-04-14T11:27:11.109Z,71.80
2018-04-14T11:28:11.136Z,71.80
2018-04-14T11:30:04.148Z,73.33
2018-04-14T11:31:04.194Z,71.89
2018-04-14T11:32:57.188Z,71.03
2018-04-14T11:33:57.255Z,71.16
2018-04-14T11:35:50.263Z,71.83
2018-04-14T11:36:50.310Z,70.97
2018-04-14T11:38:43.305Z,68.89
2018-04-14T11:39:43.369Z,71.39
2018-04-14T11:41:36.381Z,71.06
2018-04-14T11:42:36.431Z,70.20
2018-04-14T11:44:29.458Z,73.37
2018-04-14T11:45:29.486Z,72.66
2018-04-14T11:47:22.494Z,72.56
2018-04-14T11:48:22.544Z,71.31
2018-04-14T11:50:15.551Z,71.22
2018-04-14T11:51:15.599Z,70.84
2018-04-14T11:53:08.596Z,71.12
2018-04-14T11:54:08.655Z,73.52
2018-04-14T11:56:01.667Z,72.18
2018-04-14T11:57:01.713Z,70.84
2018-04-14T11:58:54.706Z,70.74
2018-04-14T11:59:54.772Z,72.66
2018-04-14T12:01:47.782Z,71.89
2018-04-14T12:02:47.828Z,71.51
2018-04-14T12:04:40.824Z,71.80
2018-04-14T12:05:40.886Z,71.31
2018-04-14T12:07:33.895Z,70.93
2018-04-14T12:08:33.942Z,71.22
2018-04-14T12:10:26.961Z,70.07
2018-04-14T12:11:27.009Z,72.66
2018-04-14T12:13:20.002Z,73.14
2018-04-14T12:14:20.066Z,73.08
2018-04-14T12:16:13.078Z,71.93
2018-04-14T12:17:13.122Z,70.97
2018-04-14T12:19:06.119Z,68.91
2018-04-14T12:20:06.186Z,70.45
2018-04-14T12:21:59.212Z,73.14
2018-04-14T12:22:59.246Z,71.31
2018-04-14T12:24:52.238Z,70.17
2018-04-14T12:25:52.305Z,69.97
2018-04-14T12:27:45.328Z,72.08
2018-04-14T12:28:45.365Z,73.04
2018-04-14T12:30:38.380Z,69.87
2018-04-14T12:31:38.424Z,70.45
2018-04-14T12:33:31.419Z,71.70
2018-04-14T12:34:31.518Z,71.51
2018-04-14T12:36:24.497Z,69.97
2018-04-14T12:37:24.552Z,70.07
2018-04-14T12:39:17.573Z,71.09
2018-04-14T12:40:17.604Z,71.61
2018-04-14T12:42:10.621Z,71.09
2018-04-14T12:43:10.662Z,72.08
2018-04-14T12:45:03.654Z,70.64
2018-04-14T12:46:03.716Z,71.12
2018-04-14T12:47:56.739Z,71.98
2018-04-14T12:48:56.786Z,71.70
2018-04-14T12:50:49.800Z,73.33
2018-04-14T12:51:49.842Z,73.20
2018-04-14T12:53:42.844Z,73.91
2018-04-14T12:54:42.906Z,73.04
2018-04-14T12:56:35.916Z,70.64
2018-04-14T12:57:35.961Z,69.68
2018-04-14T12:59:28.963Z,70.58
2018-04-14T13:00:29.018Z,69.72
2018-04-14T13:02:22.076Z,68.15
2018-04-14T13:03:22.077Z,69.78
2018-04-14T13:05:15.082Z,72.75
2018-04-14T13:06:15.132Z,71.51
2018-04-14T13:08:08.146Z,69.78
2018-04-14T13:09:08.198Z,69.20
2018-04-14T13:11:01.209Z,70.74
2018-04-14T13:12:01.251Z,70.80
2018-04-14T13:13:54.285Z,71.47
2018-04-14T13:14:54.307Z,71.09
2018-04-14T13:16:47.356Z,71.09
2018-04-14T13:17:47.369Z,71.76
2018-04-14T13:19:40.359Z,71.19
2018-04-14T13:20:40.423Z,70.99
2018-04-14T13:22:33.438Z,71.51
2018-04-14T13:23:33.476Z,71.31
2018-04-14T13:25:26.481Z,71.28
2018-04-14T13:26:26.536Z,71.09
2018-04-14T13:28:19.548Z,72.43
2018-04-14T13:29:19.600Z,71.76
2018-04-14T13:31:12.608Z,71.37
2018-04-14T13:32:12.667Z,71.57
2018-04-14T13:34:05.653Z,71.66
2018-04-14T13:35:05.709Z,72.63
2018-04-14T13:36:59.258Z,70.61
2018-04-14T13:37:58.776Z,69.74
2018-04-14T13:39:51.770Z,69.65
2018-04-14T13:40:51.838Z,68.59
2018-04-14T13:42:45.384Z,69.65
2018-04-14T13:43:44.902Z,69.84
2018-04-14T13:45:37.890Z,71.37
2018-04-14T13:46:37.956Z,73.20
2018-04-14T13:48:30.980Z,71.37
2018-04-14T13:49:31.030Z,72.05
2018-04-14T13:51:24.030Z,70.32
2018-04-14T13:52:24.074Z,70.99
2018-04-14T13:54:17.105Z,73.77
2018-04-14T13:55:17.129Z,72.63
2018-04-14T13:57:10.146Z,71.22
2018-04-14T13:58:10.192Z,73.52
2018-04-14T14:00:03.189Z,70.17
2018-04-14T14:01:03.249Z,70.17
2018-04-14T14:02:56.261Z,71.31
2018-04-14T14:03:56.304Z,72.66
2018-04-14T14:05:49.334Z,72.66
2018-04-14T14:06:49.361Z,71.61
2018-04-14T14:08:42.383Z,71.89
2018-04-14T14:09:42.432Z,70.55
2018-04-14T14:11:35.445Z,70.74
2018-04-14T14:12:35.491Z,71.19
2018-04-14T14:14:28.491Z,69.87
2018-04-14T14:15:28.620Z,72.72
2018-04-14T14:17:21.566Z,71.51
2018-04-14T14:18:21.611Z,71.03
2018-04-14T14:20:14.605Z,70.93
2018-04-14T14:21:14.679Z,72.08
2018-04-14T14:23:07.684Z,70.80
2018-04-14T14:24:07.737Z,71.19
2018-04-14T14:26:00.722Z,71.09
2018-04-14T14:27:00.800Z,72.53
2018-04-14T14:28:53.795Z,75.02
2018-04-14T14:29:53.845Z,73.39
2018-04-14T14:31:46.860Z,70.80
2018-04-14T14:32:46.906Z,71.37
2018-04-14T14:34:40.411Z,71.09
2018-04-14T14:35:40.464Z,72.24
2018-04-14T14:37:33.488Z,72.53
2018-04-14T14:38:33.538Z,72.14
2018-04-14T14:40:26.590Z,71.76
2018-04-14T14:41:26.656Z,72.43
2018-04-14T14:43:19.666Z,73.58
2018-04-14T14:44:19.712Z,72.81
2018-04-14T14:46:12.704Z,72.53
2018-04-14T14:47:12.765Z,73.00
2018-04-14T14:49:05.775Z,71.57
2018-04-14T14:50:05.828Z,71.47
2018-04-14T14:51:58.869Z,72.05
2018-04-14T14:52:58.873Z,72.72
2018-04-14T14:54:51.866Z,73.10
2018-04-14T14:55:51.933Z,73.10
2018-04-14T14:57:44.947Z,74.35
2018-04-14T14:58:44.996Z,76.07
2018-04-14T15:00:37.987Z,76.07
2018-04-14T15:01:38.048Z,75.02
2018-04-14T15:03:31.059Z,73.00
2018-04-14T15:04:31.101Z,73.97
2018-04-14T15:06:24.098Z,72.43
2018-04-14T15:07:24.160Z,71.95
2018-04-14T15:09:17.713Z,71.66
2018-04-14T15:10:17.214Z,72.81
2018-04-14T15:12:11.745Z,71.66
2018-04-14T15:13:11.795Z,72.43
2018-04-14T15:15:04.783Z,72.91
2018-04-14T15:16:04.847Z,72.63
2018-04-14T15:17:57.877Z,73.00
2018-04-14T15:18:57.911Z,72.14
2018-04-14T15:20:50.937Z,73.10
2018-04-14T15:21:50.965Z,72.91
2018-04-14T15:23:44.515Z,72.63
2018-04-14T15:24:44.020Z,72.81
2018-04-14T15:26:37.016Z,73.20
2018-04-14T15:27:37.082Z,73.77
2018-04-14T15:29:30.090Z,73.97
2018-04-14T15:30:30.130Z,73.68
2018-04-14T15:32:23.139Z,73.10
2018-04-14T15:33:23.184Z,73.83
2018-04-14T15:35:16.178Z,73.74
2018-04-14T15:36:16.242Z,74.12
2018-04-14T15:38:09.255Z,73.74
2018-04-14T15:39:09.299Z,74.41
2018-04-14T15:41:02.293Z,73.93
2018-04-14T15:42:02.359Z,74.31
2018-04-14T15:43:55.370Z,74.41
2018-04-14T15:44:55.417Z,74.54
2018-04-14T15:46:48.417Z,74.16
2018-04-14T15:47:48.473Z,74.35
2018-04-14T15:49:41.496Z,75.12
2018-04-14T15:50:41.546Z,74.73
2018-04-14T15:52:34.576Z,74.73
2018-04-14T15:53:34.613Z,75.02
2018-04-14T15:55:27.637Z,73.83
2018-04-14T15:56:27.652Z,73.93
2018-04-14T15:58:20.662Z,74.60
2018-04-14T15:59:20.708Z,74.98
2018-04-14T16:01:13.706Z,75.37
2018-04-14T16:02:13.768Z,75.65
2018-04-14T16:04:09.789Z,74.98
2018-04-14T16:05:06.825Z,75.56
2018-04-14T16:06:59.825Z,75.56
2018-04-14T16:07:59.881Z,75.46
2018-04-14T16:09:52.894Z,75.85
2018-04-14T16:10:52.937Z,75.27
2018-04-14T16:12:45.949Z,74.79
2018-04-14T16:13:45.999Z,74.98
2018-04-14T16:15:38.992Z,75.27
2018-04-14T16:16:39.059Z,75.18
2018-04-14T16:18:32.070Z,75.37
2018-04-14T16:19:32.116Z,76.27
2018-04-14T16:21:25.147Z,75.56
2018-04-14T16:22:25.172Z,75.27
2018-04-14T16:24:18.187Z,75.31
2018-04-14T16:25:18.230Z,75.40
2018-04-14T16:27:11.268Z,75.02
2018-04-14T16:28:11.290Z,75.02
2018-04-14T16:30:04.301Z,74.93
2018-04-14T16:31:04.346Z,74.79
2018-04-14T16:32:57.364Z,75.37
2018-04-14T16:33:57.407Z,76.04
2018-04-14T16:35:51.901Z,76.62
2018-04-14T16:36:51.967Z,76.62
2018-04-14T16:38:44.978Z,75.37
2018-04-14T16:39:45.021Z,75.75
2018-04-14T16:41:38.013Z,76.32
2018-04-14T16:42:38.077Z,75.95
2018-04-14T16:44:31.142Z,76.42
2018-04-14T16:45:31.141Z,76.32
2018-04-14T16:47:24.128Z,76.14
2018-04-14T16:48:24.190Z,76.32
2018-04-14T16:50:17.198Z,76.48
2018-04-14T16:51:17.242Z,76.86
2018-04-14T16:53:10.253Z,78.11
2018-04-14T16:54:10.299Z,77.53
2018-04-14T16:56:03.289Z,77.63
2018-04-14T16:57:03.349Z,77.06
2018-04-14T16:58:56.359Z,76.96
2018-04-14T16:59:56.418Z,77.15
2018-04-14T17:01:49.390Z,77.78
2018-04-14T17:02:49.460Z,78.07
2018-04-14T17:04:42.464Z,78.64
2018-04-14T17:05:42.511Z,78.36
2018-04-14T17:07:35.513Z,79.22
2018-04-14T17:08:35.566Z,79.51
2018-04-14T17:10:28.581Z,79.89
2018-04-14T17:11:28.616Z,79.70
2018-04-14T17:13:21.633Z,79.60
2018-04-14T17:14:21.670Z,79.89
2018-04-14T17:16:14.673Z,79.32
2018-04-14T17:17:14.732Z,79.41
2018-04-14T17:19:08.249Z,79.03
2018-04-14T17:20:08.293Z,79.32
2018-04-14T17:22:01.287Z,79.13
2018-04-14T17:23:01.354Z,79.80
2018-04-14T17:24:54.366Z,79.03
2018-04-14T17:25:54.449Z,79.89
2018-04-14T17:27:47.403Z,79.89
2018-04-14T17:28:47.463Z,79.70
2018-04-14T17:30:40.487Z,79.32
2018-04-14T17:31:40.518Z,79.60
2018-04-14T17:33:33.543Z,79.85
2018-04-14T17:34:33.583Z,79.75
2018-04-14T17:36:26.573Z,80.14
2018-04-14T17:37:26.638Z,80.24
2018-04-14T17:39:20.202Z,80.14
2018-04-14T17:40:19.709Z,80.04
2018-04-14T17:42:12.690Z,80.24
2018-04-14T17:43:12.749Z,80.52
2018-04-14T17:45:05.776Z,80.81
2018-04-14T17:46:05.816Z,80.52
2018-04-14T17:47:58.802Z,80.71
2018-04-14T17:48:58.888Z,80.43
2018-04-14T17:50:52.397Z,80.71
2018-04-14T17:51:52.433Z,80.33
2018-04-14T17:53:45.480Z,80.52
2018-04-14T17:54:45.844Z,80.71
2018-04-14T17:56:38.562Z,80.90
2018-04-14T17:57:38.541Z,80.87
2018-04-14T17:59:31.584Z,80.87
2018-04-14T18:00:31.622Z,81.15
2018-04-14T18:02:24.602Z,80.87
2018-04-14T18:03:24.667Z,80.96
2018-04-14T18:05:17.695Z,81.63
2018-04-14T18:06:17.727Z,81.44
2018-04-14T18:08:10.718Z,81.25
2018-04-14T18:09:10.793Z,81.25
2018-04-14T18:11:03.795Z,81.15
2018-04-14T18:12:03.837Z,81.92
2018-04-14T18:13:56.854Z,81.82
2018-04-14T18:14:56.899Z,81.63
2018-04-14T18:16:49.950Z,82.11
2018-04-14T18:17:49.988Z,82.17
2018-04-14T18:19:43.001Z,81.82
2018-04-14T18:20:43.003Z,82.01
2018-04-14T18:22:36.058Z,82.07
2018-04-14T18:23:36.066Z,82.17
2018-04-14T18:25:29.074Z,81.97
2018-04-14T18:26:29.117Z,82.35
2018-04-14T18:28:22.109Z,82.83
2018-04-14T18:29:22.173Z,82.54
2018-04-14T18:31:15.220Z,82.83
2018-04-14T18:32:15.229Z,83.12
2018-04-14T18:34:08.234Z,82.93